Pagrindinis puslapis
METAR-TAF:

METAR-TAF

Oro uostai :

Namsos, Norvegija

platuma: 64-28N, ilguma: 011-35E, Aukštis: 0 m

Dabartinis oras

Ataskaita buvo paskelbta 12 minutes, ne 10:50 UTC
Vėjas 2 kt nuo kintamojo kryptimis
Temperatūra 3°C
Drėgmė 93%
Slėgis 998 hPa
Matomumas 10 km arba daugiau
Išsisklaidę debesys ne aukštis 200 ft
Su prošvaistėmis ne aukštis 7000 ft

METAR: ENNM 291050Z VRB02KT 9999 SCT002 BKN070 03/02 Q0998

Laikas: 12:02 (11:02 UTC)


TAF: trūkstamas

Orai ataskaitas ir orų prognozės (METAR, TAF).

turimą stotys yra geltonos ir raudonos taškus žemėlapyje.

Perkelti pele per norėdami pamatyti stoties vardą.

Tada spustelėkite, norėdami matyti oro stebėjimo ir prognozės.

Norėdami pakeisti žemėlapį: spustelėkite ant žalios mygtukų su juodo kryžiaus žemyn,; žalią mygtuką su brūkšneliu, jei norite nutolinti; arba žalių rodyklių gretimoms žemėlapius.


METAR-TAF: